sensor_id;sensor_type;location;lat;lon;timestamp;temperature;humidity
52439;DHT22;38359;53.150;6.504;2022-11-15T00:06:02;8.30;99.90
52439;DHT22;38359;53.150;6.504;2022-11-15T00:16:28;8.00;99.90
52439;DHT22;38359;53.150;6.504;2022-11-15T00:26:54;7.60;99.90
52439;DHT22;38359;53.150;6.504;2022-11-15T00:37:20;7.60;99.90
52439;DHT22;38359;53.150;6.504;2022-11-15T00:47:46;7.60;99.90
52439;DHT22;38359;53.150;6.504;2022-11-15T00:58:12;7.80;99.90
52439;DHT22;38359;53.150;6.504;2022-11-15T01:08:39;7.90;99.90
52439;DHT22;38359;53.150;6.504;2022-11-15T01:19:05;7.90;99.90
52439;DHT22;38359;53.150;6.504;2022-11-15T01:29:31;7.90;99.90
52439;DHT22;38359;53.150;6.504;2022-11-15T01:39:57;7.90;99.90
52439;DHT22;38359;53.150;6.504;2022-11-15T01:50:26;7.80;99.90
52439;DHT22;38359;53.150;6.504;2022-11-15T02:00:55;7.80;99.90
52439;DHT22;38359;53.150;6.504;2022-11-15T02:11:21;7.70;99.90
52439;DHT22;38359;53.150;6.504;2022-11-15T02:44:00;7.70;99.90
52439;DHT22;38359;53.150;6.504;2022-11-15T02:54:31;7.60;99.90
52439;DHT22;38359;53.150;6.504;2022-11-15T03:05:08;7.70;99.90
52439;DHT22;38359;53.150;6.504;2022-11-15T03:15:39;7.80;99.90
52439;DHT22;38359;53.150;6.504;2022-11-15T03:26:11;7.80;99.90
52439;DHT22;38359;53.150;6.504;2022-11-15T03:36:38;8.00;99.90
52439;DHT22;38359;53.150;6.504;2022-11-15T03:47:16;7.90;99.90
52439;DHT22;38359;53.150;6.504;2022-11-15T03:57:49;8.00;99.90
52439;DHT22;38359;53.150;6.504;2022-11-15T04:08:17;8.10;99.90
52439;DHT22;38359;53.150;6.504;2022-11-15T04:18:42;8.20;99.90
52439;DHT22;38359;53.150;6.504;2022-11-15T04:29:08;8.30;99.90
52439;DHT22;38359;53.150;6.504;2022-11-15T04:39:52;8.40;99.90
52439;DHT22;38359;53.150;6.504;2022-11-15T04:50:18;8.40;99.90
52439;DHT22;38359;53.150;6.504;2022-11-15T05:00:44;8.50;99.90
52439;DHT22;38359;53.150;6.504;2022-11-15T05:11:09;8.60;99.90
52439;DHT22;38359;53.150;6.504;2022-11-15T05:21:36;8.60;99.90
52439;DHT22;38359;53.150;6.504;2022-11-15T05:32:04;8.70;99.90
52439;DHT22;38359;53.150;6.504;2022-11-15T05:42:31;8.80;99.90
52439;DHT22;38359;53.150;6.504;2022-11-15T05:52:57;8.90;99.90
52439;DHT22;38359;53.150;6.504;2022-11-15T06:03:23;9.00;99.90
52439;DHT22;38359;53.150;6.504;2022-11-15T06:13:48;9.20;99.90
52439;DHT22;38359;53.150;6.504;2022-11-15T06:24:14;9.30;99.90
52439;DHT22;38359;53.150;6.504;2022-11-15T06:34:40;9.40;99.90
52439;DHT22;38359;53.150;6.504;2022-11-15T06:45:07;9.50;99.90
52439;DHT22;38359;53.150;6.504;2022-11-15T06:55:33;9.60;99.90
52439;DHT22;38359;53.150;6.504;2022-11-15T07:05:58;9.80;99.90
52439;DHT22;38359;53.150;6.504;2022-11-15T07:16:24;9.90;99.90
52439;DHT22;38359;53.150;6.504;2022-11-15T07:26:50;10.00;99.90
52439;DHT22;38359;53.150;6.504;2022-11-15T07:37:16;10.20;99.90
52439;DHT22;38359;53.150;6.504;2022-11-15T07:47:45;10.20;99.90
52439;DHT22;38359;53.150;6.504;2022-11-15T07:58:12;10.40;99.90
52439;DHT22;38359;53.150;6.504;2022-11-15T08:08:38;10.40;99.90
52439;DHT22;38359;53.150;6.504;2022-11-15T08:19:04;10.50;99.90
52439;DHT22;38359;53.150;6.504;2022-11-15T08:29:29;10.60;99.90
52439;DHT22;38359;53.150;6.504;2022-11-15T08:39:55;10.70;99.90
52439;DHT22;38359;53.150;6.504;2022-11-15T08:50:21;10.90;99.90
52439;DHT22;38359;53.150;6.504;2022-11-15T09:00:47;10.90;99.90
52439;DHT22;38359;53.150;6.504;2022-11-15T09:11:13;11.10;99.90
52439;DHT22;38359;53.150;6.504;2022-11-15T09:21:40;11.20;99.90
52439;DHT22;38359;53.150;6.504;2022-11-15T09:32:05;11.40;99.90
52439;DHT22;38359;53.150;6.504;2022-11-15T09:53:43;11.50;99.90
52439;DHT22;38359;53.150;6.504;2022-11-15T10:04:24;11.60;99.90
52439;DHT22;38359;53.150;6.504;2022-11-15T10:15:02;11.60;99.90
52439;DHT22;38359;53.150;6.504;2022-11-15T10:25:31;11.70;99.90
52439;DHT22;38359;53.150;6.504;2022-11-15T10:46:41;11.90;99.90
52439;DHT22;38359;53.150;6.504;2022-11-15T10:57:17;12.00;99.90
52439;DHT22;38359;53.150;6.504;2022-11-15T11:07:56;12.10;99.90
52439;DHT22;38359;53.150;6.504;2022-11-15T11:18:34;12.30;99.90
52439;DHT22;38359;53.150;6.504;2022-11-15T11:51:11;13.20;99.90
52439;DHT22;38359;53.150;6.504;2022-11-15T12:01:44;13.00;99.90
52439;DHT22;38359;53.150;6.504;2022-11-15T12:12:15;12.90;99.90
52439;DHT22;38359;53.150;6.504;2022-11-15T12:33:48;12.90;99.90
52439;DHT22;38359;53.150;6.504;2022-11-15T12:54:58;13.00;99.90
52439;DHT22;38359;53.150;6.504;2022-11-15T13:05:56;13.30;99.90
52439;DHT22;38359;53.150;6.504;2022-11-15T13:16:24;13.60;99.90
52439;DHT22;38359;53.150;6.504;2022-11-15T13:26:50;13.50;99.90
52439;DHT22;38359;53.150;6.504;2022-11-15T13:47:51;13.20;99.90
52439;DHT22;38359;53.150;6.504;2022-11-15T13:58:19;13.20;99.90
52439;DHT22;38359;53.150;6.504;2022-11-15T14:19:38;14.10;99.90
52439;DHT22;38359;53.150;6.504;2022-11-15T14:30:05;13.70;99.90
52439;DHT22;38359;53.150;6.504;2022-11-15T14:40:31;13.30;99.90
52439;DHT22;38359;53.150;6.504;2022-11-15T14:50:57;12.70;99.90
52439;DHT22;38359;53.150;6.504;2022-11-15T15:01:26;12.40;99.90
52439;DHT22;38359;53.150;6.504;2022-11-15T15:11:52;12.10;99.90
52439;DHT22;38359;53.150;6.504;2022-11-15T15:22:20;11.80;99.90
52439;DHT22;38359;53.150;6.504;2022-11-15T15:32:51;11.50;99.90
52439;DHT22;38359;53.150;6.504;2022-11-15T15:43:16;11.10;99.90
52439;DHT22;38359;53.150;6.504;2022-11-15T15:53:42;11.10;99.90
52439;DHT22;38359;53.150;6.504;2022-11-15T16:04:09;11.00;99.90
52439;DHT22;38359;53.150;6.504;2022-11-15T16:14:48;10.90;99.90
52439;DHT22;38359;53.150;6.504;2022-11-15T16:25:14;10.80;99.90
52439;DHT22;38359;53.150;6.504;2022-11-15T16:35:40;10.50;99.90
52439;DHT22;38359;53.150;6.504;2022-11-15T16:46:25;10.40;99.90
52439;DHT22;38359;53.150;6.504;2022-11-15T16:56:52;10.50;99.90
52439;DHT22;38359;53.150;6.504;2022-11-15T17:07:18;10.70;99.90
52439;DHT22;38359;53.150;6.504;2022-11-15T17:17:44;10.70;99.90
52439;DHT22;38359;53.150;6.504;2022-11-15T17:28:16;10.80;99.90
52439;DHT22;38359;53.150;6.504;2022-11-15T17:38:42;10.70;99.90
52439;DHT22;38359;53.150;6.504;2022-11-15T17:49:08;10.90;99.90
52439;DHT22;38359;53.150;6.504;2022-11-15T17:59:34;10.90;99.90
52439;DHT22;38359;53.150;6.504;2022-11-15T18:10:00;10.90;99.90
52439;DHT22;38359;53.150;6.504;2022-11-15T18:20:26;10.90;99.90
52439;DHT22;38359;53.150;6.504;2022-11-15T18:30:52;10.90;99.90
52439;DHT22;38359;53.150;6.504;2022-11-15T18:41:18;10.90;99.90
52439;DHT22;38359;53.150;6.504;2022-11-15T18:51:48;10.90;99.90
52439;DHT22;38359;53.150;6.504;2022-11-15T19:02:14;10.90;99.90
52439;DHT22;38359;53.150;6.504;2022-11-15T19:12:40;10.90;99.90
52439;DHT22;38359;53.150;6.504;2022-11-15T19:23:06;10.90;99.90
52439;DHT22;38359;53.150;6.504;2022-11-15T19:33:32;11.00;99.90
52439;DHT22;38359;53.150;6.504;2022-11-15T19:43:59;11.10;99.90
52439;DHT22;38359;53.150;6.504;2022-11-15T19:54:24;11.10;99.90
52439;DHT22;38359;53.150;6.504;2022-11-15T20:04:50;11.10;99.90
52439;DHT22;38359;53.150;6.504;2022-11-15T20:15:16;11.00;99.90
52439;DHT22;38359;53.150;6.504;2022-11-15T20:25:46;11.00;99.90
52439;DHT22;38359;53.150;6.504;2022-11-15T20:36:14;11.00;99.90
52439;DHT22;38359;53.150;6.504;2022-11-15T20:46:40;11.10;99.90
52439;DHT22;38359;53.150;6.504;2022-11-15T20:57:06;11.20;99.90
52439;DHT22;38359;53.150;6.504;2022-11-15T21:07:31;11.20;99.90
52439;DHT22;38359;53.150;6.504;2022-11-15T21:17:57;11.10;99.90
52439;DHT22;38359;53.150;6.504;2022-11-15T21:28:23;11.10;99.90
52439;DHT22;38359;53.150;6.504;2022-11-15T21:38:49;10.90;99.90
52439;DHT22;38359;53.150;6.504;2022-11-15T21:49:14;10.80;99.90
52439;DHT22;38359;53.150;6.504;2022-11-15T21:59:40;10.60;99.90
52439;DHT22;38359;53.150;6.504;2022-11-15T22:10:26;10.60;99.90
52439;DHT22;38359;53.150;6.504;2022-11-15T22:21:13;10.60;99.90
52439;DHT22;38359;53.150;6.504;2022-11-15T22:31:40;10.60;99.90
52439;DHT22;38359;53.150;6.504;2022-11-15T22:42:05;10.60;99.90
52439;DHT22;38359;53.150;6.504;2022-11-15T22:52:31;10.60;99.90
52439;DHT22;38359;53.150;6.504;2022-11-15T23:02:57;10.60;99.90
52439;DHT22;38359;53.150;6.504;2022-11-15T23:13:25;10.60;99.90
52439;DHT22;38359;53.150;6.504;2022-11-15T23:23:51;10.70;99.90
52439;DHT22;38359;53.150;6.504;2022-11-15T23:34:17;10.70;99.90
52439;DHT22;38359;53.150;6.504;2022-11-15T23:44:43;10.80;99.90
52439;DHT22;38359;53.150;6.504;2022-11-15T23:55:09;10.90;99.90
